sensor_id;sensor_type;location;lat;lon;timestamp;temperature;humidity
22288;DHT22;11312;51.464;6.968;2024-02-26T00:00:41;6.20;99.90
22288;DHT22;11312;51.464;6.968;2024-02-26T00:03:07;6.20;99.90
22288;DHT22;11312;51.464;6.968;2024-02-26T00:05:32;6.30;99.90
22288;DHT22;11312;51.464;6.968;2024-02-26T00:07:58;6.30;99.90
22288;DHT22;11312;51.464;6.968;2024-02-26T00:10:24;6.30;99.90
22288;DHT22;11312;51.464;6.968;2024-02-26T00:12:49;6.30;99.90
22288;DHT22;11312;51.464;6.968;2024-02-26T00:15:15;6.30;99.90
22288;DHT22;11312;51.464;6.968;2024-02-26T00:17:40;6.30;99.90
22288;DHT22;11312;51.464;6.968;2024-02-26T00:20:06;6.20;99.90
22288;DHT22;11312;51.464;6.968;2024-02-26T00:22:34;6.20;99.90
22288;DHT22;11312;51.464;6.968;2024-02-26T00:25:00;6.20;99.90
22288;DHT22;11312;51.464;6.968;2024-02-26T00:27:26;6.30;99.90
22288;DHT22;11312;51.464;6.968;2024-02-26T00:29:51;6.20;99.90
22288;DHT22;11312;51.464;6.968;2024-02-26T00:32:17;6.10;99.90
22288;DHT22;11312;51.464;6.968;2024-02-26T00:34:43;6.20;99.90
22288;DHT22;11312;51.464;6.968;2024-02-26T00:37:10;6.20;99.90
22288;DHT22;11312;51.464;6.968;2024-02-26T00:39:36;6.20;99.90
22288;DHT22;11312;51.464;6.968;2024-02-26T00:42:01;6.20;99.90
22288;DHT22;11312;51.464;6.968;2024-02-26T00:44:28;6.20;99.90
22288;DHT22;11312;51.464;6.968;2024-02-26T00:46:54;6.20;99.90
22288;DHT22;11312;51.464;6.968;2024-02-26T00:49:19;6.20;99.90
22288;DHT22;11312;51.464;6.968;2024-02-26T00:51:45;6.20;99.90
22288;DHT22;11312;51.464;6.968;2024-02-26T00:54:10;6.20;99.90
22288;DHT22;11312;51.464;6.968;2024-02-26T00:56:36;6.20;99.90
22288;DHT22;11312;51.464;6.968;2024-02-26T00:59:01;6.20;99.90
22288;DHT22;11312;51.464;6.968;2024-02-26T01:01:27;6.30;99.90
22288;DHT22;11312;51.464;6.968;2024-02-26T01:03:53;6.20;99.90
22288;DHT22;11312;51.464;6.968;2024-02-26T01:06:18;6.20;99.90
22288;DHT22;11312;51.464;6.968;2024-02-26T01:08:44;6.20;99.90
22288;DHT22;11312;51.464;6.968;2024-02-26T01:11:10;6.10;99.90
22288;DHT22;11312;51.464;6.968;2024-02-26T01:13:35;6.20;99.90
22288;DHT22;11312;51.464;6.968;2024-02-26T01:16:01;6.20;99.90
22288;DHT22;11312;51.464;6.968;2024-02-26T01:18:27;6.20;99.90
22288;DHT22;11312;51.464;6.968;2024-02-26T01:20:52;6.10;99.90
22288;DHT22;11312;51.464;6.968;2024-02-26T01:23:20;6.20;99.90
22288;DHT22;11312;51.464;6.968;2024-02-26T01:25:45;6.20;99.90
22288;DHT22;11312;51.464;6.968;2024-02-26T01:28:11;6.20;99.90
22288;DHT22;11312;51.464;6.968;2024-02-26T01:30:37;6.20;99.90
22288;DHT22;11312;51.464;6.968;2024-02-26T01:33:02;6.20;99.90
22288;DHT22;11312;51.464;6.968;2024-02-26T01:35:29;6.20;99.90
22288;DHT22;11312;51.464;6.968;2024-02-26T01:37:55;6.20;99.90
22288;DHT22;11312;51.464;6.968;2024-02-26T01:40:21;6.20;99.90
22288;DHT22;11312;51.464;6.968;2024-02-26T01:42:47;6.20;99.90
22288;DHT22;11312;51.464;6.968;2024-02-26T01:45:17;6.10;99.90
22288;DHT22;11312;51.464;6.968;2024-02-26T01:47:51;6.10;99.90
22288;DHT22;11312;51.464;6.968;2024-02-26T01:50:17;6.10;99.90
22288;DHT22;11312;51.464;6.968;2024-02-26T01:52:45;6.10;99.90
22288;DHT22;11312;51.464;6.968;2024-02-26T01:55:12;6.10;99.90
22288;DHT22;11312;51.464;6.968;2024-02-26T01:57:40;6.10;99.90
22288;DHT22;11312;51.464;6.968;2024-02-26T02:00:07;6.10;99.90
22288;DHT22;11312;51.464;6.968;2024-02-26T02:02:32;6.10;99.90
22288;DHT22;11312;51.464;6.968;2024-02-26T02:04:59;6.20;99.90
22288;DHT22;11312;51.464;6.968;2024-02-26T02:07:26;6.10;99.90
22288;DHT22;11312;51.464;6.968;2024-02-26T02:09:51;6.10;99.90
22288;DHT22;11312;51.464;6.968;2024-02-26T02:12:19;6.20;99.90
22288;DHT22;11312;51.464;6.968;2024-02-26T02:14:44;6.20;99.90
22288;DHT22;11312;51.464;6.968;2024-02-26T02:17:12;6.20;99.90
22288;DHT22;11312;51.464;6.968;2024-02-26T02:19:38;6.10;99.90
22288;DHT22;11312;51.464;6.968;2024-02-26T02:22:03;6.10;99.90
22288;DHT22;11312;51.464;6.968;2024-02-26T02:24:29;6.10;99.90
22288;DHT22;11312;51.464;6.968;2024-02-26T02:26:55;6.10;99.90
22288;DHT22;11312;51.464;6.968;2024-02-26T02:29:21;6.10;99.90
22288;DHT22;11312;51.464;6.968;2024-02-26T02:31:47;6.10;99.90
22288;DHT22;11312;51.464;6.968;2024-02-26T02:34:13;6.10;99.90
22288;DHT22;11312;51.464;6.968;2024-02-26T02:36:52;6.10;99.90
22288;DHT22;11312;51.464;6.968;2024-02-26T02:39:18;6.20;99.90
22288;DHT22;11312;51.464;6.968;2024-02-26T02:41:44;6.00;99.90
22288;DHT22;11312;51.464;6.968;2024-02-26T02:44:09;6.00;99.90
22288;DHT22;11312;51.464;6.968;2024-02-26T02:46:35;6.00;99.90
22288;DHT22;11312;51.464;6.968;2024-02-26T02:49:01;6.10;99.90
22288;DHT22;11312;51.464;6.968;2024-02-26T02:51:27;6.10;99.90
22288;DHT22;11312;51.464;6.968;2024-02-26T02:53:52;6.10;99.90
22288;DHT22;11312;51.464;6.968;2024-02-26T02:56:18;6.00;99.90
22288;DHT22;11312;51.464;6.968;2024-02-26T02:58:44;6.00;99.90
22288;DHT22;11312;51.464;6.968;2024-02-26T03:01:10;6.10;99.90
22288;DHT22;11312;51.464;6.968;2024-02-26T03:03:36;6.10;99.90
22288;DHT22;11312;51.464;6.968;2024-02-26T03:06:03;6.10;99.90
22288;DHT22;11312;51.464;6.968;2024-02-26T03:08:28;6.10;99.90
22288;DHT22;11312;51.464;6.968;2024-02-26T03:10:54;6.10;99.90
22288;DHT22;11312;51.464;6.968;2024-02-26T03:13:20;6.10;99.90
22288;DHT22;11312;51.464;6.968;2024-02-26T03:15:47;6.20;99.90
22288;DHT22;11312;51.464;6.968;2024-02-26T03:18:12;6.20;99.90
22288;DHT22;11312;51.464;6.968;2024-02-26T03:20:38;6.10;99.90
22288;DHT22;11312;51.464;6.968;2024-02-26T03:23:04;6.10;99.90
22288;DHT22;11312;51.464;6.968;2024-02-26T03:25:29;6.10;99.90
22288;DHT22;11312;51.464;6.968;2024-02-26T03:27:55;6.20;99.90
22288;DHT22;11312;51.464;6.968;2024-02-26T03:30:21;6.20;99.90
22288;DHT22;11312;51.464;6.968;2024-02-26T03:32:46;6.20;99.90
22288;DHT22;11312;51.464;6.968;2024-02-26T03:35:13;6.10;99.90
22288;DHT22;11312;51.464;6.968;2024-02-26T03:37:38;6.10;99.90
22288;DHT22;11312;51.464;6.968;2024-02-26T03:40:05;6.10;99.90
22288;DHT22;11312;51.464;6.968;2024-02-26T03:42:31;6.00;99.90
22288;DHT22;11312;51.464;6.968;2024-02-26T03:44:57;5.90;99.90
22288;DHT22;11312;51.464;6.968;2024-02-26T03:47:22;6.00;99.90
22288;DHT22;11312;51.464;6.968;2024-02-26T03:49:48;6.00;99.90
22288;DHT22;11312;51.464;6.968;2024-02-26T03:52:13;6.00;99.90
22288;DHT22;11312;51.464;6.968;2024-02-26T03:54:40;6.00;99.90
22288;DHT22;11312;51.464;6.968;2024-02-26T03:57:06;6.00;99.90
22288;DHT22;11312;51.464;6.968;2024-02-26T03:59:32;5.90;99.90
22288;DHT22;11312;51.464;6.968;2024-02-26T04:01:58;5.90;99.90
22288;DHT22;11312;51.464;6.968;2024-02-26T04:04:23;5.90;99.90
22288;DHT22;11312;51.464;6.968;2024-02-26T04:06:49;5.90;99.90
22288;DHT22;11312;51.464;6.968;2024-02-26T04:09:15;5.80;99.90
22288;DHT22;11312;51.464;6.968;2024-02-26T04:11:41;5.80;99.90
22288;DHT22;11312;51.464;6.968;2024-02-26T04:14:08;5.80;99.90
22288;DHT22;11312;51.464;6.968;2024-02-26T04:16:35;5.80;99.90
22288;DHT22;11312;51.464;6.968;2024-02-26T04:19:03;5.80;99.90
22288;DHT22;11312;51.464;6.968;2024-02-26T04:21:29;5.80;99.90
22288;DHT22;11312;51.464;6.968;2024-02-26T04:23:54;5.80;99.90
22288;DHT22;11312;51.464;6.968;2024-02-26T04:26:26;5.50;99.90
22288;DHT22;11312;51.464;6.968;2024-02-26T04:28:52;5.70;99.90
22288;DHT22;11312;51.464;6.968;2024-02-26T04:31:18;5.80;99.90
22288;DHT22;11312;51.464;6.968;2024-02-26T04:33:44;5.70;99.90
22288;DHT22;11312;51.464;6.968;2024-02-26T04:36:16;5.70;99.90
22288;DHT22;11312;51.464;6.968;2024-02-26T04:38:45;5.70;99.90
22288;DHT22;11312;51.464;6.968;2024-02-26T04:41:11;5.70;99.90
22288;DHT22;11312;51.464;6.968;2024-02-26T04:43:38;5.60;99.90
22288;DHT22;11312;51.464;6.968;2024-02-26T04:46:09;5.60;99.90
22288;DHT22;11312;51.464;6.968;2024-02-26T04:48:36;5.70;99.90
22288;DHT22;11312;51.464;6.968;2024-02-26T04:51:02;5.70;99.90
22288;DHT22;11312;51.464;6.968;2024-02-26T04:53:28;5.70;99.90
22288;DHT22;11312;51.464;6.968;2024-02-26T04:55:54;5.60;99.90
22288;DHT22;11312;51.464;6.968;2024-02-26T04:58:20;5.70;99.90
22288;DHT22;11312;51.464;6.968;2024-02-26T05:00:45;5.60;99.90
22288;DHT22;11312;51.464;6.968;2024-02-26T05:03:11;5.60;99.90
22288;DHT22;11312;51.464;6.968;2024-02-26T05:05:42;5.50;99.90
22288;DHT22;11312;51.464;6.968;2024-02-26T05:08:08;5.60;99.90
22288;DHT22;11312;51.464;6.968;2024-02-26T05:10:34;5.50;99.90
22288;DHT22;11312;51.464;6.968;2024-02-26T05:13:00;5.40;99.90
22288;DHT22;11312;51.464;6.968;2024-02-26T05:15:25;5.40;99.90
22288;DHT22;11312;51.464;6.968;2024-02-26T05:17:51;5.50;99.90
22288;DHT22;11312;51.464;6.968;2024-02-26T05:20:18;5.50;99.90
22288;DHT22;11312;51.464;6.968;2024-02-26T05:22:43;5.50;99.90
22288;DHT22;11312;51.464;6.968;2024-02-26T05:25:09;5.60;99.90
22288;DHT22;11312;51.464;6.968;2024-02-26T05:27:35;5.50;99.90
22288;DHT22;11312;51.464;6.968;2024-02-26T05:30:00;5.50;99.90
22288;DHT22;11312;51.464;6.968;2024-02-26T05:32:26;5.60;99.90
22288;DHT22;11312;51.464;6.968;2024-02-26T05:34:52;5.50;99.90
22288;DHT22;11312;51.464;6.968;2024-02-26T05:37:17;5.50;99.90
22288;DHT22;11312;51.464;6.968;2024-02-26T05:39:43;5.60;99.90
22288;DHT22;11312;51.464;6.968;2024-02-26T05:42:08;5.50;99.90
22288;DHT22;11312;51.464;6.968;2024-02-26T05:44:34;5.50;99.90
22288;DHT22;11312;51.464;6.968;2024-02-26T05:47:00;5.40;99.90
22288;DHT22;11312;51.464;6.968;2024-02-26T05:49:25;5.50;99.90
22288;DHT22;11312;51.464;6.968;2024-02-26T05:51:51;5.50;99.90
22288;DHT22;11312;51.464;6.968;2024-02-26T05:54:17;5.50;99.90
22288;DHT22;11312;51.464;6.968;2024-02-26T05:56:42;5.50;99.90
22288;DHT22;11312;51.464;6.968;2024-02-26T05:59:08;5.50;99.90
22288;DHT22;11312;51.464;6.968;2024-02-26T06:01:33;5.50;99.90
22288;DHT22;11312;51.464;6.968;2024-02-26T06:03:59;5.30;99.90
22288;DHT22;11312;51.464;6.968;2024-02-26T06:06:25;5.40;99.90
22288;DHT22;11312;51.464;6.968;2024-02-26T06:08:50;5.40;99.90
22288;DHT22;11312;51.464;6.968;2024-02-26T06:11:16;5.40;99.90
22288;DHT22;11312;51.464;6.968;2024-02-26T06:13:42;5.40;99.90
22288;DHT22;11312;51.464;6.968;2024-02-26T06:16:10;5.40;99.90
22288;DHT22;11312;51.464;6.968;2024-02-26T06:18:36;5.50;99.90
22288;DHT22;11312;51.464;6.968;2024-02-26T06:21:01;5.50;99.90
22288;DHT22;11312;51.464;6.968;2024-02-26T06:23:27;5.50;99.90
22288;DHT22;11312;51.464;6.968;2024-02-26T06:25:53;5.50;99.90
22288;DHT22;11312;51.464;6.968;2024-02-26T06:28:19;5.50;99.90
22288;DHT22;11312;51.464;6.968;2024-02-26T06:30:46;5.60;99.90
22288;DHT22;11312;51.464;6.968;2024-02-26T06:33:12;5.50;99.90
22288;DHT22;11312;51.464;6.968;2024-02-26T06:35:38;5.40;99.90
22288;DHT22;11312;51.464;6.968;2024-02-26T06:38:03;5.40;99.90
22288;DHT22;11312;51.464;6.968;2024-02-26T06:40:29;5.50;99.90
22288;DHT22;11312;51.464;6.968;2024-02-26T06:42:55;5.50;99.90
22288;DHT22;11312;51.464;6.968;2024-02-26T06:45:21;5.40;99.90
22288;DHT22;11312;51.464;6.968;2024-02-26T06:47:47;5.60;99.90
22288;DHT22;11312;51.464;6.968;2024-02-26T06:50:13;5.50;99.90
22288;DHT22;11312;51.464;6.968;2024-02-26T06:52:39;5.40;99.90
22288;DHT22;11312;51.464;6.968;2024-02-26T06:55:05;5.50;99.90
22288;DHT22;11312;51.464;6.968;2024-02-26T06:57:33;5.60;99.90
22288;DHT22;11312;51.464;6.968;2024-02-26T06:59:59;5.60;99.90
22288;DHT22;11312;51.464;6.968;2024-02-26T07:02:24;5.60;99.90
22288;DHT22;11312;51.464;6.968;2024-02-26T07:04:50;5.50;99.90
22288;DHT22;11312;51.464;6.968;2024-02-26T07:07:16;5.60;99.90
22288;DHT22;11312;51.464;6.968;2024-02-26T07:09:43;5.60;99.90
22288;DHT22;11312;51.464;6.968;2024-02-26T07:12:09;5.60;99.90
22288;DHT22;11312;51.464;6.968;2024-02-26T07:14:34;5.60;99.90
22288;DHT22;11312;51.464;6.968;2024-02-26T07:17:03;5.60;99.90
22288;DHT22;11312;51.464;6.968;2024-02-26T07:19:28;5.60;99.90
22288;DHT22;11312;51.464;6.968;2024-02-26T07:21:54;5.60;99.90
22288;DHT22;11312;51.464;6.968;2024-02-26T07:24:21;5.60;99.90
22288;DHT22;11312;51.464;6.968;2024-02-26T07:26:46;5.60;99.90
22288;DHT22;11312;51.464;6.968;2024-02-26T07:29:12;5.70;99.90
22288;DHT22;11312;51.464;6.968;2024-02-26T07:31:38;5.70;99.90
22288;DHT22;11312;51.464;6.968;2024-02-26T07:34:03;5.80;99.90
22288;DHT22;11312;51.464;6.968;2024-02-26T07:36:29;5.50;99.90
22288;DHT22;11312;51.464;6.968;2024-02-26T07:38:54;5.70;99.90
22288;DHT22;11312;51.464;6.968;2024-02-26T07:41:20;5.60;99.90
22288;DHT22;11312;51.464;6.968;2024-02-26T07:43:46;5.70;99.90
22288;DHT22;11312;51.464;6.968;2024-02-26T07:46:12;5.80;99.90
22288;DHT22;11312;51.464;6.968;2024-02-26T07:48:38;5.80;99.90
22288;DHT22;11312;51.464;6.968;2024-02-26T07:51:04;5.70;99.90
22288;DHT22;11312;51.464;6.968;2024-02-26T07:53:30;5.70;99.90
22288;DHT22;11312;51.464;6.968;2024-02-26T07:55:56;5.70;99.90
22288;DHT22;11312;51.464;6.968;2024-02-26T07:58:23;5.60;99.90
22288;DHT22;11312;51.464;6.968;2024-02-26T08:00:49;5.70;99.90
22288;DHT22;11312;51.464;6.968;2024-02-26T08:03:15;5.70;99.90
22288;DHT22;11312;51.464;6.968;2024-02-26T08:05:41;5.80;99.90
22288;DHT22;11312;51.464;6.968;2024-02-26T08:08:08;5.70;99.90
22288;DHT22;11312;51.464;6.968;2024-02-26T08:10:34;5.70;99.90
22288;DHT22;11312;51.464;6.968;2024-02-26T08:13:00;5.60;99.90
22288;DHT22;11312;51.464;6.968;2024-02-26T08:15:34;5.50;99.90
22288;DHT22;11312;51.464;6.968;2024-02-26T08:18:04;5.60;99.90
22288;DHT22;11312;51.464;6.968;2024-02-26T08:20:30;5.60;99.90
22288;DHT22;11312;51.464;6.968;2024-02-26T08:22:56;5.60;99.90
22288;DHT22;11312;51.464;6.968;2024-02-26T08:25:22;5.70;99.90
22288;DHT22;11312;51.464;6.968;2024-02-26T08:27:49;5.80;99.90
22288;DHT22;11312;51.464;6.968;2024-02-26T08:30:16;5.80;99.90
22288;DHT22;11312;51.464;6.968;2024-02-26T08:32:47;5.80;99.90
22288;DHT22;11312;51.464;6.968;2024-02-26T08:35:13;5.90;99.90
22288;DHT22;11312;51.464;6.968;2024-02-26T08:37:38;6.00;99.90
22288;DHT22;11312;51.464;6.968;2024-02-26T08:40:05;6.00;99.90
22288;DHT22;11312;51.464;6.968;2024-02-26T08:42:31;5.90;99.90
22288;DHT22;11312;51.464;6.968;2024-02-26T08:44:57;5.90;99.90
22288;DHT22;11312;51.464;6.968;2024-02-26T08:47:25;5.90;99.90
22288;DHT22;11312;51.464;6.968;2024-02-26T08:49:51;5.90;99.90
22288;DHT22;11312;51.464;6.968;2024-02-26T08:52:17;6.00;99.90
22288;DHT22;11312;51.464;6.968;2024-02-26T08:54:42;6.00;99.90
22288;DHT22;11312;51.464;6.968;2024-02-26T08:57:08;6.00;99.90
22288;DHT22;11312;51.464;6.968;2024-02-26T08:59:33;6.10;99.90
22288;DHT22;11312;51.464;6.968;2024-02-26T09:01:59;6.10;99.90
22288;DHT22;11312;51.464;6.968;2024-02-26T09:04:25;6.00;99.90
22288;DHT22;11312;51.464;6.968;2024-02-26T09:06:53;6.20;99.90
22288;DHT22;11312;51.464;6.968;2024-02-26T09:09:19;6.10;99.90
22288;DHT22;11312;51.464;6.968;2024-02-26T09:11:46;6.10;99.90
22288;DHT22;11312;51.464;6.968;2024-02-26T09:14:12;6.10;99.90
22288;DHT22;11312;51.464;6.968;2024-02-26T09:16:37;6.20;99.90
22288;DHT22;11312;51.464;6.968;2024-02-26T09:19:03;6.10;99.90
22288;DHT22;11312;51.464;6.968;2024-02-26T09:21:29;6.10;99.90
22288;DHT22;11312;51.464;6.968;2024-02-26T09:23:54;6.10;99.90
22288;DHT22;11312;51.464;6.968;2024-02-26T09:26:20;6.00;99.90
22288;DHT22;11312;51.464;6.968;2024-02-26T09:28:46;6.00;99.90
22288;DHT22;11312;51.464;6.968;2024-02-26T09:31:11;6.20;99.90
22288;DHT22;11312;51.464;6.968;2024-02-26T09:33:37;6.10;99.90
22288;DHT22;11312;51.464;6.968;2024-02-26T09:36:04;6.10;99.90
22288;DHT22;11312;51.464;6.968;2024-02-26T09:38:30;6.00;99.90
22288;DHT22;11312;51.464;6.968;2024-02-26T09:40:57;6.10;99.90
22288;DHT22;11312;51.464;6.968;2024-02-26T09:43:23;6.10;99.90
22288;DHT22;11312;51.464;6.968;2024-02-26T09:45:54;6.20;99.90
22288;DHT22;11312;51.464;6.968;2024-02-26T09:48:20;6.20;99.90
22288;DHT22;11312;51.464;6.968;2024-02-26T09:50:48;6.10;99.90
22288;DHT22;11312;51.464;6.968;2024-02-26T09:53:14;6.10;99.90
22288;DHT22;11312;51.464;6.968;2024-02-26T09:55:40;6.00;99.90
22288;DHT22;11312;51.464;6.968;2024-02-26T09:58:06;6.00;99.90
22288;DHT22;11312;51.464;6.968;2024-02-26T10:00:36;6.10;99.90
22288;DHT22;11312;51.464;6.968;2024-02-26T10:03:04;6.20;99.90
22288;DHT22;11312;51.464;6.968;2024-02-26T10:05:31;6.10;99.90
22288;DHT22;11312;51.464;6.968;2024-02-26T10:07:57;6.10;99.90
22288;DHT22;11312;51.464;6.968;2024-02-26T10:10:24;6.10;99.90
22288;DHT22;11312;51.464;6.968;2024-02-26T10:12:50;6.20;99.90
22288;DHT22;11312;51.464;6.968;2024-02-26T10:15:16;6.20;99.90
22288;DHT22;11312;51.464;6.968;2024-02-26T10:17:42;6.10;99.90
22288;DHT22;11312;51.464;6.968;2024-02-26T10:20:18;6.20;99.90
22288;DHT22;11312;51.464;6.968;2024-02-26T10:22:46;6.30;99.90
22288;DHT22;11312;51.464;6.968;2024-02-26T10:25:12;6.20;99.90
22288;DHT22;11312;51.464;6.968;2024-02-26T10:27:40;6.30;99.90
22288;DHT22;11312;51.464;6.968;2024-02-26T10:30:20;6.20;99.90
22288;DHT22;11312;51.464;6.968;2024-02-26T10:32:51;6.30;99.90
22288;DHT22;11312;51.464;6.968;2024-02-26T10:35:18;6.40;99.90
22288;DHT22;11312;51.464;6.968;2024-02-26T10:37:46;6.40;99.90
22288;DHT22;11312;51.464;6.968;2024-02-26T10:40:15;6.50;99.90
22288;DHT22;11312;51.464;6.968;2024-02-26T10:42:42;6.50;99.90
22288;DHT22;11312;51.464;6.968;2024-02-26T10:45:09;6.40;99.90
22288;DHT22;11312;51.464;6.968;2024-02-26T10:47:38;6.30;99.90
22288;DHT22;11312;51.464;6.968;2024-02-26T10:50:06;6.30;99.90
22288;DHT22;11312;51.464;6.968;2024-02-26T10:52:33;6.30;99.90
22288;DHT22;11312;51.464;6.968;2024-02-26T10:55:01;6.40;99.90
22288;DHT22;11312;51.464;6.968;2024-02-26T10:57:39;6.50;99.90
22288;DHT22;11312;51.464;6.968;2024-02-26T11:00:07;6.40;99.90
22288;DHT22;11312;51.464;6.968;2024-02-26T11:02:36;6.60;99.90
22288;DHT22;11312;51.464;6.968;2024-02-26T11:05:03;6.70;99.90
22288;DHT22;11312;51.464;6.968;2024-02-26T11:07:31;6.70;99.90
22288;DHT22;11312;51.464;6.968;2024-02-26T11:10:05;6.80;99.90
22288;DHT22;11312;51.464;6.968;2024-02-26T11:12:35;6.90;99.90
22288;DHT22;11312;51.464;6.968;2024-02-26T11:15:04;7.00;99.90
22288;DHT22;11312;51.464;6.968;2024-02-26T11:17:31;7.00;99.90
22288;DHT22;11312;51.464;6.968;2024-02-26T11:19:59;7.00;99.90
22288;DHT22;11312;51.464;6.968;2024-02-26T11:22:25;7.00;99.90
22288;DHT22;11312;51.464;6.968;2024-02-26T11:24:55;6.90;99.90
22288;DHT22;11312;51.464;6.968;2024-02-26T11:27:43;6.90;99.90
22288;DHT22;11312;51.464;6.968;2024-02-26T11:30:11;7.10;99.90
22288;DHT22;11312;51.464;6.968;2024-02-26T11:32:38;7.10;99.90
22288;DHT22;11312;51.464;6.968;2024-02-26T11:35:05;7.10;99.90
22288;DHT22;11312;51.464;6.968;2024-02-26T11:37:32;7.30;99.90
22288;DHT22;11312;51.464;6.968;2024-02-26T11:39:59;7.30;99.90
22288;DHT22;11312;51.464;6.968;2024-02-26T11:42:26;7.40;99.90
22288;DHT22;11312;51.464;6.968;2024-02-26T11:44:51;7.40;99.90
22288;DHT22;11312;51.464;6.968;2024-02-26T11:47:22;7.40;99.90
22288;DHT22;11312;51.464;6.968;2024-02-26T11:49:48;7.40;99.90
22288;DHT22;11312;51.464;6.968;2024-02-26T11:52:14;7.60;99.90
22288;DHT22;11312;51.464;6.968;2024-02-26T11:54:52;7.60;99.90
22288;DHT22;11312;51.464;6.968;2024-02-26T11:57:32;7.80;99.90
22288;DHT22;11312;51.464;6.968;2024-02-26T12:00:13;8.00;99.90
22288;DHT22;11312;51.464;6.968;2024-02-26T12:02:51;8.00;99.90
22288;DHT22;11312;51.464;6.968;2024-02-26T12:05:23;8.00;99.90
22288;DHT22;11312;51.464;6.968;2024-02-26T12:07:59;7.90;99.90
22288;DHT22;11312;51.464;6.968;2024-02-26T12:10:41;7.70;99.90
22288;DHT22;11312;51.464;6.968;2024-02-26T12:13:14;7.90;99.90
22288;DHT22;11312;51.464;6.968;2024-02-26T12:15:45;7.90;99.90
22288;DHT22;11312;51.464;6.968;2024-02-26T12:18:17;8.00;99.90
22288;DHT22;11312;51.464;6.968;2024-02-26T12:20:42;7.90;99.90
22288;DHT22;11312;51.464;6.968;2024-02-26T12:23:16;7.80;99.90
22288;DHT22;11312;51.464;6.968;2024-02-26T12:25:44;7.90;99.90
22288;DHT22;11312;51.464;6.968;2024-02-26T12:28:14;7.60;99.90
22288;DHT22;11312;51.464;6.968;2024-02-26T12:30:39;7.50;99.90
22288;DHT22;11312;51.464;6.968;2024-02-26T12:33:05;7.50;99.90
22288;DHT22;11312;51.464;6.968;2024-02-26T12:35:32;7.50;99.90
22288;DHT22;11312;51.464;6.968;2024-02-26T12:37:58;7.60;99.90
22288;DHT22;11312;51.464;6.968;2024-02-26T12:40:24;7.50;99.90
22288;DHT22;11312;51.464;6.968;2024-02-26T12:42:49;7.60;99.90
22288;DHT22;11312;51.464;6.968;2024-02-26T12:45:15;7.70;99.90
22288;DHT22;11312;51.464;6.968;2024-02-26T12:47:45;7.70;99.90
22288;DHT22;11312;51.464;6.968;2024-02-26T12:50:15;7.70;99.90
22288;DHT22;11312;51.464;6.968;2024-02-26T12:52:46;7.80;99.90
22288;DHT22;11312;51.464;6.968;2024-02-26T12:55:16;7.80;99.90
22288;DHT22;11312;51.464;6.968;2024-02-26T12:57:43;7.80;99.90
22288;DHT22;11312;51.464;6.968;2024-02-26T13:00:12;7.70;99.90
22288;DHT22;11312;51.464;6.968;2024-02-26T13:02:40;7.80;99.90
22288;DHT22;11312;51.464;6.968;2024-02-26T13:05:08;7.80;99.90
22288;DHT22;11312;51.464;6.968;2024-02-26T13:07:40;7.90;99.90
22288;DHT22;11312;51.464;6.968;2024-02-26T13:10:06;7.80;99.90
22288;DHT22;11312;51.464;6.968;2024-02-26T13:12:32;7.80;99.90
22288;DHT22;11312;51.464;6.968;2024-02-26T13:15:02;7.80;99.90
22288;DHT22;11312;51.464;6.968;2024-02-26T13:17:32;8.00;99.90
22288;DHT22;11312;51.464;6.968;2024-02-26T13:19:57;7.90;99.90
22288;DHT22;11312;51.464;6.968;2024-02-26T13:22:23;8.00;99.90
22288;DHT22;11312;51.464;6.968;2024-02-26T13:24:56;7.90;99.90
22288;DHT22;11312;51.464;6.968;2024-02-26T13:27:23;7.80;99.90
22288;DHT22;11312;51.464;6.968;2024-02-26T13:30:01;7.80;99.90
22288;DHT22;11312;51.464;6.968;2024-02-26T13:32:27;7.70;99.90
22288;DHT22;11312;51.464;6.968;2024-02-26T13:35:07;7.90;99.90
22288;DHT22;11312;51.464;6.968;2024-02-26T13:37:34;7.70;99.90
22288;DHT22;11312;51.464;6.968;2024-02-26T13:40:00;7.80;99.90
22288;DHT22;11312;51.464;6.968;2024-02-26T13:42:29;7.80;99.90
22288;DHT22;11312;51.464;6.968;2024-02-26T13:44:55;7.90;99.90
22288;DHT22;11312;51.464;6.968;2024-02-26T13:47:20;7.90;99.90
22288;DHT22;11312;51.464;6.968;2024-02-26T13:49:46;7.80;99.90
22288;DHT22;11312;51.464;6.968;2024-02-26T13:52:12;7.80;99.90
22288;DHT22;11312;51.464;6.968;2024-02-26T13:54:37;7.80;99.90
22288;DHT22;11312;51.464;6.968;2024-02-26T13:57:04;7.80;99.90
22288;DHT22;11312;51.464;6.968;2024-02-26T13:59:30;7.80;99.90
22288;DHT22;11312;51.464;6.968;2024-02-26T14:01:55;7.80;99.90
22288;DHT22;11312;51.464;6.968;2024-02-26T14:04:21;7.70;99.90
22288;DHT22;11312;51.464;6.968;2024-02-26T14:06:47;7.70;99.90
22288;DHT22;11312;51.464;6.968;2024-02-26T14:09:12;7.70;99.90
22288;DHT22;11312;51.464;6.968;2024-02-26T14:11:47;7.70;99.90
22288;DHT22;11312;51.464;6.968;2024-02-26T14:14:13;7.80;99.90
22288;DHT22;11312;51.464;6.968;2024-02-26T14:16:39;7.70;99.90
22288;DHT22;11312;51.464;6.968;2024-02-26T14:19:04;7.70;99.90
22288;DHT22;11312;51.464;6.968;2024-02-26T14:21:30;7.70;99.90
22288;DHT22;11312;51.464;6.968;2024-02-26T14:23:56;7.60;99.90
22288;DHT22;11312;51.464;6.968;2024-02-26T14:26:23;7.60;99.90
22288;DHT22;11312;51.464;6.968;2024-02-26T14:28:48;7.70;99.90
22288;DHT22;11312;51.464;6.968;2024-02-26T14:31:17;7.60;99.90
22288;DHT22;11312;51.464;6.968;2024-02-26T14:33:43;7.60;99.90
22288;DHT22;11312;51.464;6.968;2024-02-26T14:36:09;7.50;99.90
22288;DHT22;11312;51.464;6.968;2024-02-26T14:38:35;7.50;99.90
22288;DHT22;11312;51.464;6.968;2024-02-26T14:41:01;7.50;99.90
22288;DHT22;11312;51.464;6.968;2024-02-26T14:43:28;7.60;99.90
22288;DHT22;11312;51.464;6.968;2024-02-26T14:45:53;7.60;99.90
22288;DHT22;11312;51.464;6.968;2024-02-26T14:48:19;7.60;99.90
22288;DHT22;11312;51.464;6.968;2024-02-26T14:50:45;7.60;99.90
22288;DHT22;11312;51.464;6.968;2024-02-26T14:53:10;7.70;99.90
22288;DHT22;11312;51.464;6.968;2024-02-26T14:55:36;7.70;99.90
22288;DHT22;11312;51.464;6.968;2024-02-26T14:58:02;7.60;99.90
22288;DHT22;11312;51.464;6.968;2024-02-26T15:00:27;7.60;99.90
22288;DHT22;11312;51.464;6.968;2024-02-26T15:02:53;7.60;99.90
22288;DHT22;11312;51.464;6.968;2024-02-26T15:05:20;7.60;99.90
22288;DHT22;11312;51.464;6.968;2024-02-26T15:07:45;7.70;99.90
22288;DHT22;11312;51.464;6.968;2024-02-26T15:10:11;7.60;99.90
22288;DHT22;11312;51.464;6.968;2024-02-26T15:12:37;7.50;99.90
22288;DHT22;11312;51.464;6.968;2024-02-26T15:15:04;7.60;99.90
22288;DHT22;11312;51.464;6.968;2024-02-26T15:17:31;7.60;99.90
22288;DHT22;11312;51.464;6.968;2024-02-26T15:19:59;7.60;99.90
22288;DHT22;11312;51.464;6.968;2024-02-26T15:22:25;7.50;99.90
22288;DHT22;11312;51.464;6.968;2024-02-26T15:24:51;7.50;99.90
22288;DHT22;11312;51.464;6.968;2024-02-26T15:27:17;7.50;99.90
22288;DHT22;11312;51.464;6.968;2024-02-26T15:29:43;7.50;99.90
22288;DHT22;11312;51.464;6.968;2024-02-26T15:32:09;7.50;99.90
22288;DHT22;11312;51.464;6.968;2024-02-26T15:34:35;7.50;99.90
22288;DHT22;11312;51.464;6.968;2024-02-26T15:37:02;7.50;99.90
22288;DHT22;11312;51.464;6.968;2024-02-26T15:39:29;7.50;99.90
22288;DHT22;11312;51.464;6.968;2024-02-26T15:41:54;7.50;99.90